createdAt,value
2018-04-06T00:00:37.793Z,0
2018-04-06T00:01:39.147Z,0
2018-04-06T00:02:40.499Z,0
2018-04-06T00:03:41.843Z,0
2018-04-06T00:04:43.195Z,0
2018-04-06T00:05:44.531Z,0
2018-04-06T00:06:45.893Z,0
2018-04-06T00:07:47.246Z,0
2018-04-06T00:08:48.622Z,0
2018-04-06T00:09:49.980Z,0
2018-04-06T00:10:51.335Z,0
2018-04-06T00:11:52.694Z,0
2018-04-06T00:12:54.058Z,0
2018-04-06T00:13:55.404Z,0
2018-04-06T00:14:56.754Z,0
2018-04-06T00:15:58.101Z,0
2018-04-06T00:16:59.463Z,0
2018-04-06T00:18:00.805Z,0
2018-04-06T00:19:02.150Z,0
2018-04-06T00:20:03.500Z,0
2018-04-06T00:21:04.844Z,0
2018-04-06T00:22:06.195Z,0
2018-04-06T00:23:07.544Z,0
2018-04-06T00:24:08.892Z,0
2018-04-06T00:25:10.238Z,0
2018-04-06T00:26:11.585Z,0
2018-04-06T00:27:12.925Z,0
2018-04-06T00:28:14.277Z,0
2018-04-06T00:29:15.621Z,0
2018-04-06T00:30:16.962Z,0
2018-04-06T00:31:18.314Z,0
2018-04-06T00:32:19.662Z,0
2018-04-06T00:33:21.013Z,0
2018-04-06T00:34:22.363Z,0
2018-04-06T00:35:23.705Z,0
2018-04-06T00:36:25.053Z,0
2018-04-06T00:37:26.407Z,0
2018-04-06T00:38:27.750Z,0
2018-04-06T00:39:29.102Z,0
2018-04-06T00:40:30.441Z,0
2018-04-06T00:41:31.812Z,0
2018-04-06T00:42:33.159Z,0
2018-04-06T00:43:34.501Z,0
2018-04-06T00:44:35.856Z,0
2018-04-06T00:45:37.211Z,0
2018-04-06T00:46:38.554Z,0
2018-04-06T00:47:40.533Z,0
2018-04-06T00:48:41.878Z,0
2018-04-06T00:49:43.234Z,0
2018-04-06T00:50:44.579Z,0
2018-04-06T00:51:45.935Z,0
2018-04-06T00:52:47.281Z,0
2018-04-06T00:53:48.628Z,0
2018-04-06T00:54:49.974Z,0
2018-04-06T00:55:51.316Z,0
2018-04-06T00:56:52.662Z,0
2018-04-06T00:57:54.010Z,0
2018-04-06T00:58:55.362Z,0
2018-04-06T00:59:56.729Z,0
2018-04-06T01:00:58.068Z,0
2018-04-06T01:01:59.412Z,0
2018-04-06T01:03:00.762Z,0
2018-04-06T01:04:02.108Z,0
2018-04-06T01:05:03.456Z,0
2018-04-06T01:06:04.809Z,0
2018-04-06T01:07:06.156Z,0
2018-04-06T01:08:07.511Z,0
2018-04-06T01:09:08.860Z,0
2018-04-06T01:10:10.212Z,0
2018-04-06T01:11:11.568Z,0
2018-04-06T01:12:12.902Z,0
2018-04-06T01:13:14.250Z,0
2018-04-06T01:14:15.600Z,0
2018-04-06T01:15:16.947Z,0
2018-04-06T01:16:18.294Z,0
2018-04-06T01:17:19.642Z,0
2018-04-06T01:18:20.990Z,0
2018-04-06T01:19:22.374Z,0
2018-04-06T01:20:23.719Z,0
2018-04-06T01:21:25.065Z,0
2018-04-06T01:22:26.412Z,0
2018-04-06T01:23:27.762Z,0
2018-04-06T01:24:29.113Z,0
2018-04-06T01:25:30.451Z,0
2018-04-06T01:26:31.802Z,0
2018-04-06T01:27:33.149Z,0
2018-04-06T01:28:34.502Z,0
2018-04-06T01:29:35.849Z,0
2018-04-06T01:30:37.191Z,0
2018-04-06T01:31:38.539Z,0
2018-04-06T01:32:39.887Z,0
2018-04-06T01:33:41.231Z,0
2018-04-06T01:34:42.585Z,0
2018-04-06T01:35:43.929Z,0
2018-04-06T01:36:45.282Z,0
2018-04-06T01:37:46.627Z,0
2018-04-06T01:38:47.973Z,0
2018-04-06T01:39:49.314Z,0
2018-04-06T01:40:50.659Z,0
2018-04-06T01:41:52.012Z,0
2018-04-06T01:42:53.358Z,0
2018-04-06T01:43:54.705Z,0
2018-04-06T01:44:56.062Z,0
2018-04-06T01:45:57.407Z,0
2018-04-06T01:46:58.748Z,0
2018-04-06T01:48:00.101Z,0
2018-04-06T01:49:01.452Z,0
2018-04-06T01:50:02.807Z,0
2018-04-06T01:51:04.150Z,0
2018-04-06T01:52:05.499Z,0
2018-04-06T01:53:06.842Z,0
2018-04-06T01:54:08.193Z,0
2018-04-06T01:55:09.538Z,0
2018-04-06T01:56:10.886Z,0
2018-04-06T01:57:12.231Z,0
2018-04-06T01:58:13.581Z,0
2018-04-06T01:59:14.920Z,0
2018-04-06T02:00:16.272Z,0
2018-04-06T02:01:17.617Z,0
2018-04-06T02:02:18.962Z,0
2018-04-06T02:03:20.312Z,0
2018-04-06T02:04:21.683Z,0
2018-04-06T02:05:23.030Z,0
2018-04-06T02:06:24.385Z,0
2018-04-06T02:07:25.733Z,0
2018-04-06T02:08:27.072Z,0
2018-04-06T02:09:28.419Z,0
2018-04-06T02:10:29.765Z,0
2018-04-06T02:11:31.110Z,0
2018-04-06T02:12:32.468Z,0
2018-04-06T02:13:33.810Z,0
2018-04-06T02:14:35.154Z,0
2018-04-06T02:15:36.503Z,0
2018-04-06T02:16:37.855Z,0
2018-04-06T02:17:39.211Z,0
2018-04-06T02:18:40.567Z,0
2018-04-06T02:19:41.912Z,0
2018-04-06T02:20:43.260Z,0
2018-04-06T02:21:44.608Z,0
2018-04-06T02:22:45.956Z,0
2018-04-06T02:23:47.302Z,0
2018-04-06T02:24:48.708Z,0
2018-04-06T02:25:49.989Z,0
2018-04-06T02:26:51.344Z,0
2018-04-06T02:27:52.689Z,0
2018-04-06T02:28:54.766Z,0
2018-04-06T02:29:56.121Z,0
2018-04-06T02:30:57.472Z,0
2018-04-06T02:31:58.825Z,0
2018-04-06T02:33:00.171Z,0
2018-04-06T02:34:01.535Z,0
2018-04-06T02:35:02.883Z,0
2018-04-06T02:36:04.226Z,0
2018-04-06T02:37:05.564Z,0
2018-04-06T02:38:06.918Z,0
2018-04-06T02:39:08.278Z,0
2018-04-06T02:40:09.622Z,0
2018-04-06T02:41:10.975Z,0
2018-04-06T02:42:12.321Z,0
2018-04-06T02:43:13.660Z,0
2018-04-06T02:44:15.013Z,0
2018-04-06T02:45:16.364Z,0
2018-04-06T02:46:17.709Z,0
2018-04-06T02:47:19.058Z,0
2018-04-06T02:48:20.407Z,0
2018-04-06T02:49:21.752Z,0
2018-04-06T02:50:23.098Z,0
2018-04-06T02:51:24.448Z,0
2018-04-06T02:52:25.789Z,0
2018-04-06T02:53:27.141Z,0
2018-04-06T02:54:28.490Z,0
2018-04-06T02:55:29.832Z,0
2018-04-06T02:56:31.179Z,0
2018-04-06T02:57:32.514Z,0
2018-04-06T02:58:33.869Z,0
2018-04-06T02:59:35.216Z,0
2018-04-06T03:00:36.561Z,0
2018-04-06T03:01:37.915Z,0
2018-04-06T03:02:39.259Z,0
2018-04-06T03:03:40.605Z,0
2018-04-06T03:04:41.953Z,0
2018-04-06T03:05:43.293Z,0
2018-04-06T03:06:44.651Z,0
2018-04-06T03:07:45.995Z,0
2018-04-06T03:08:47.340Z,0
2018-04-06T03:09:48.690Z,0
2018-04-06T03:10:50.037Z,0
2018-04-06T03:11:51.382Z,0
2018-04-06T03:12:52.725Z,0
2018-04-06T03:13:54.076Z,0
2018-04-06T03:14:55.453Z,0
2018-04-06T03:15:56.770Z,0
2018-04-06T03:16:58.124Z,0
2018-04-06T03:17:59.476Z,0
2018-04-06T03:19:00.835Z,0
2018-04-06T03:20:02.178Z,0
2018-04-06T03:21:03.517Z,0
2018-04-06T03:22:04.865Z,0
2018-04-06T03:23:06.221Z,0
2018-04-06T03:24:07.568Z,0
2018-04-06T03:25:08.906Z,0
2018-04-06T03:26:10.259Z,0
2018-04-06T03:27:11.612Z,0
2018-04-06T03:28:12.963Z,0
2018-04-06T03:29:14.312Z,0
2018-04-06T03:30:15.675Z,0
2018-04-06T03:31:17.008Z,0
2018-04-06T03:32:18.349Z,0
2018-04-06T03:33:19.695Z,0
2018-04-06T03:34:21.042Z,0
2018-04-06T03:35:22.388Z,0
2018-04-06T03:36:23.740Z,0
2018-04-06T03:37:25.085Z,0
2018-04-06T03:38:26.433Z,0
2018-04-06T03:39:27.779Z,0
2018-04-06T03:40:29.126Z,0
2018-04-06T03:41:30.478Z,0
2018-04-06T03:42:31.829Z,0
2018-04-06T03:43:33.170Z,0
2018-04-06T03:44:34.516Z,0
2018-04-06T03:45:35.873Z,0
2018-04-06T03:46:37.213Z,0
2018-04-06T03:47:38.564Z,0
2018-04-06T03:48:39.914Z,0
2018-04-06T03:49:41.266Z,0
2018-04-06T03:50:42.611Z,0
2018-04-06T03:51:43.957Z,0
2018-04-06T03:52:45.306Z,0
2018-04-06T03:53:46.659Z,0
2018-04-06T03:54:48.008Z,0
2018-04-06T03:55:49.356Z,0
2018-04-06T03:56:50.709Z,0
2018-04-06T03:57:52.050Z,0
2018-04-06T03:58:53.403Z,0
2018-04-06T03:59:54.758Z,0
2018-04-06T04:00:56.107Z,0
2018-04-06T04:01:57.456Z,0
2018-04-06T04:02:58.806Z,0
2018-04-06T04:04:00.153Z,0
2018-04-06T04:05:01.507Z,0
2018-04-06T04:06:02.857Z,0
2018-04-06T04:07:04.205Z,0
2018-04-06T04:08:05.553Z,0
2018-04-06T04:09:06.904Z,0
2018-04-06T04:10:08.254Z,0
2018-04-06T04:11:09.600Z,0
2018-04-06T04:12:10.941Z,0
2018-04-06T04:13:12.297Z,0
2018-04-06T04:14:13.642Z,0
2018-04-06T04:15:14.988Z,0
2018-04-06T04:16:16.331Z,0
2018-04-06T04:17:17.687Z,0
2018-04-06T04:18:19.037Z,0
2018-04-06T04:19:20.381Z,0
2018-04-06T04:20:21.731Z,0
2018-04-06T04:21:23.076Z,0
2018-04-06T04:22:24.419Z,0
2018-04-06T04:23:25.766Z,0
2018-04-06T04:24:27.107Z,0
2018-04-06T04:25:28.452Z,0
2018-04-06T04:26:29.796Z,0
2018-04-06T04:27:31.148Z,0
2018-04-06T04:28:32.499Z,0
2018-04-06T04:29:33.854Z,0
2018-04-06T04:30:35.198Z,0
2018-04-06T04:31:36.632Z,0
2018-04-06T04:32:37.986Z,0
2018-04-06T04:33:39.331Z,0
2018-04-06T04:34:40.680Z,0
2018-04-06T04:35:42.024Z,0
2018-04-06T04:36:43.365Z,0
2018-04-06T04:37:44.717Z,0
2018-04-06T04:38:46.073Z,0
2018-04-06T04:39:47.411Z,0
2018-04-06T04:40:48.764Z,5
2018-04-06T04:41:50.109Z,5
2018-04-06T04:42:51.462Z,5
2018-04-06T04:43:52.813Z,5
2018-04-06T04:44:54.165Z,5
2018-04-06T04:45:55.525Z,11
2018-04-06T04:46:56.872Z,11
2018-04-06T04:47:58.227Z,11
2018-04-06T04:48:59.574Z,11
2018-04-06T04:50:00.931Z,16
2018-04-06T04:51:02.305Z,16
2018-04-06T04:52:03.659Z,16
2018-04-06T04:53:05.021Z,16
2018-04-06T04:54:06.374Z,22
2018-04-06T04:55:07.731Z,22
2018-04-06T04:56:09.086Z,22
2018-04-06T04:57:10.436Z,28
2018-04-06T04:58:11.784Z,28
2018-04-06T04:59:13.140Z,28
2018-04-06T05:00:14.479Z,33
2018-04-06T05:01:15.834Z,33
2018-04-06T05:02:17.185Z,39
2018-04-06T05:03:18.547Z,45
2018-04-06T05:04:19.927Z,45
2018-04-06T05:05:21.271Z,50
2018-04-06T05:06:22.630Z,56
2018-04-06T05:07:24.783Z,56
2018-04-06T05:08:26.146Z,61
2018-04-06T05:09:27.498Z,61
2018-04-06T05:10:28.867Z,61
2018-04-06T05:11:30.210Z,67
2018-04-06T05:12:31.559Z,67
2018-04-06T05:13:32.913Z,73
2018-04-06T05:14:34.264Z,73
2018-04-06T05:15:35.631Z,78
2018-04-06T05:16:36.984Z,78
2018-04-06T05:17:38.396Z,84
2018-04-06T05:18:39.703Z,84
2018-04-06T05:19:41.058Z,90
2018-04-06T05:20:42.411Z,90
2018-04-06T05:21:43.776Z,95
2018-04-06T05:22:45.136Z,95
2018-04-06T05:23:46.490Z,95
2018-04-06T05:24:47.850Z,101
2018-04-06T05:25:49.211Z,101
2018-04-06T05:26:50.561Z,106
2018-04-06T05:27:51.941Z,106
2018-04-06T05:28:53.286Z,106
2018-04-06T05:29:54.645Z,112
2018-04-06T05:30:56.000Z,112
2018-04-06T05:31:57.358Z,118
2018-04-06T05:32:58.721Z,118
2018-04-06T05:34:00.066Z,118
2018-04-06T05:35:01.425Z,123
2018-04-06T05:36:02.766Z,123
2018-04-06T05:37:04.116Z,129
2018-04-06T05:38:05.468Z,135
2018-04-06T05:39:06.821Z,135
2018-04-06T05:40:08.178Z,140
2018-04-06T05:41:09.546Z,146
2018-04-06T05:42:10.911Z,146
2018-04-06T05:43:12.265Z,151
2018-04-06T05:44:13.613Z,157
2018-04-06T05:45:14.971Z,163
2018-04-06T05:46:16.322Z,163
2018-04-06T05:47:17.680Z,168
2018-04-06T05:48:19.033Z,174
2018-04-06T05:49:20.388Z,180
2018-04-06T05:50:21.740Z,185
2018-04-06T05:51:23.094Z,191
2018-04-06T05:52:25.236Z,191
2018-04-06T05:53:26.596Z,196
2018-04-06T05:54:27.946Z,202
2018-04-06T05:55:29.309Z,202
2018-04-06T05:56:30.644Z,208
2018-04-06T05:57:31.996Z,219
2018-04-06T05:58:33.345Z,225
2018-04-06T05:59:34.698Z,230
2018-04-06T06:00:36.058Z,236
2018-04-06T06:01:37.414Z,241
2018-04-06T06:02:38.767Z,247
2018-04-06T06:03:40.116Z,253
2018-04-06T06:04:41.477Z,264
2018-04-06T06:05:42.815Z,270
2018-04-06T06:06:44.167Z,275
2018-04-06T06:07:45.523Z,281
2018-04-06T06:08:46.885Z,286
2018-04-06T06:09:48.248Z,292
2018-04-06T06:10:49.585Z,298
2018-04-06T06:11:50.942Z,303
2018-04-06T06:12:52.297Z,315
2018-04-06T06:13:53.686Z,326
2018-04-06T06:14:55.030Z,326
2018-04-06T06:15:56.385Z,331
2018-04-06T06:16:57.749Z,343
2018-04-06T06:17:59.106Z,348
2018-04-06T06:19:00.467Z,354
2018-04-06T06:20:01.825Z,354
2018-04-06T06:21:03.179Z,360
2018-04-06T06:22:04.540Z,360
2018-04-06T06:23:05.896Z,360
2018-04-06T06:24:07.252Z,360
2018-04-06T06:25:08.650Z,360
2018-04-06T06:26:09.998Z,360
2018-04-06T06:27:11.360Z,360
2018-04-06T06:28:12.718Z,365
2018-04-06T06:29:14.106Z,354
2018-04-06T06:30:15.446Z,354
2018-04-06T06:31:16.784Z,348
2018-04-06T06:32:18.153Z,348
2018-04-06T06:33:19.571Z,348
2018-04-06T06:34:20.928Z,348
2018-04-06T06:35:22.286Z,343
2018-04-06T06:36:23.647Z,343
2018-04-06T06:37:25.000Z,354
2018-04-06T06:38:26.355Z,354
2018-04-06T06:39:27.739Z,348
2018-04-06T06:40:29.099Z,348
2018-04-06T06:41:30.457Z,354
2018-04-06T06:42:31.820Z,399
2018-04-06T06:43:33.171Z,438
2018-04-06T06:44:34.534Z,444
2018-04-06T06:45:35.885Z,444
2018-04-06T06:46:37.233Z,455
2018-04-06T06:47:38.596Z,455
2018-04-06T06:48:39.954Z,444
2018-04-06T06:49:41.308Z,444
2018-04-06T06:50:42.688Z,444
2018-04-06T06:51:44.052Z,472
2018-04-06T06:52:45.405Z,472
2018-04-06T06:53:46.779Z,478
2018-04-06T06:54:48.135Z,483
2018-04-06T06:55:49.487Z,483
2018-04-06T06:56:50.853Z,495
2018-04-06T06:57:52.201Z,506
2018-04-06T06:58:53.557Z,540
2018-04-06T06:59:55.035Z,556
2018-04-06T07:00:56.400Z,568
2018-04-06T07:01:57.756Z,579
2018-04-06T07:02:59.108Z,624
2018-04-06T07:04:00.469Z,652
2018-04-06T07:05:01.834Z,630
2018-04-06T07:06:03.192Z,585
2018-04-06T07:07:04.552Z,551
2018-04-06T07:08:05.924Z,551
2018-04-06T07:09:07.285Z,545
2018-04-06T07:10:08.653Z,573
2018-04-06T07:11:10.019Z,641
2018-04-06T07:12:11.376Z,613
2018-04-06T07:13:12.739Z,624
2018-04-06T07:14:14.102Z,658
2018-04-06T07:15:15.460Z,669
2018-04-06T07:16:16.816Z,686
2018-04-06T07:17:18.178Z,686
2018-04-06T07:18:19.542Z,697
2018-04-06T07:19:20.905Z,725
2018-04-06T07:20:22.300Z,821
2018-04-06T07:21:24.574Z,916
2018-04-06T07:22:25.936Z,922
2018-04-06T07:23:27.294Z,956
2018-04-06T07:24:28.657Z,911
2018-04-06T07:25:30.023Z,905
2018-04-06T07:31:09.020Z,1192
2018-04-06T07:32:10.392Z,1164
2018-04-06T07:33:11.766Z,1164
2018-04-06T07:42:18.998Z,1513
2018-04-06T07:43:22.983Z,1625
2018-04-06T07:44:27.146Z,1591
2018-04-06T07:45:31.070Z,1698
2018-04-06T07:46:35.043Z,1687
2018-04-06T07:47:39.043Z,1597
2018-04-06T07:48:42.976Z,1563
2018-04-06T07:49:46.932Z,1597
2018-04-06T07:50:50.823Z,1580
2018-04-06T07:51:54.955Z,1552
2018-04-06T07:52:58.885Z,1608
2018-04-06T07:54:02.826Z,1468
2018-04-06T07:55:07.437Z,1445
2018-04-06T07:56:11.413Z,1620
2018-04-06T07:57:15.382Z,1676
2018-04-06T07:58:19.381Z,1608
2018-04-06T07:59:23.329Z,1648
2018-04-06T08:00:27.504Z,1569
2018-04-06T08:01:31.928Z,1496
2018-04-06T08:02:35.905Z,1625
2018-04-06T08:03:39.862Z,1563
2018-04-06T08:04:43.833Z,1473
2018-04-06T08:05:47.764Z,1530
2018-04-06T08:06:51.696Z,1676
2018-04-06T08:07:56.296Z,1710
2018-04-06T08:09:00.350Z,1580
2018-04-06T08:10:04.361Z,1603
2018-04-06T08:11:08.296Z,1732
2018-04-06T08:12:12.229Z,1738
2018-04-06T08:13:16.165Z,1698
2018-04-06T08:14:20.120Z,1760
2018-04-06T08:15:24.319Z,1800
2018-04-06T08:16:28.287Z,1800
2018-04-06T08:17:32.228Z,1805
2018-04-06T08:18:36.164Z,1839
2018-04-06T08:19:40.084Z,1845
2018-04-06T08:20:44.027Z,1974
2018-04-06T08:21:47.987Z,1906
2018-04-06T08:22:51.897Z,1895
2018-04-06T08:23:56.064Z,2053
2018-04-06T08:25:00.105Z,2047
2018-04-06T08:26:04.058Z,2041
2018-04-06T08:27:07.998Z,2086
2018-04-06T08:28:11.884Z,2160
2018-04-06T08:29:15.842Z,2047
2018-04-06T08:30:19.797Z,2036
2018-04-06T08:31:24.002Z,2047
2018-04-06T08:32:27.956Z,2250
2018-04-06T08:33:31.885Z,2053
2018-04-06T08:34:35.824Z,1783
2018-04-06T08:35:39.766Z,1957
2018-04-06T08:36:43.746Z,2295
2018-04-06T08:37:47.671Z,2356
2018-04-06T08:38:51.604Z,2570
2018-04-06T08:39:55.836Z,2587
2018-04-06T08:40:59.783Z,2553
2018-04-06T08:42:03.808Z,2576
2018-04-06T08:43:07.779Z,2469
2018-04-06T08:44:11.800Z,2593
2018-04-06T08:45:16.002Z,2683
2018-04-06T08:46:19.938Z,2660
2018-04-06T08:47:24.125Z,2610
2018-04-06T08:48:28.309Z,2311
2018-04-06T08:49:32.246Z,2103
2018-04-06T08:50:36.213Z,1957
2018-04-06T08:51:40.140Z,1918
2018-04-06T08:52:44.253Z,1861
2018-04-06T08:53:48.193Z,1884
2018-04-06T08:54:52.216Z,2176
2018-04-06T08:55:56.302Z,2576
2018-04-06T08:57:00.449Z,2407
2018-04-06T08:58:04.409Z,2385
2018-04-06T09:05:00.947Z,2632
2018-04-06T09:06:02.304Z,2469
2018-04-06T09:07:03.677Z,2745
2018-04-06T09:08:05.043Z,2880
2018-04-06T09:09:06.414Z,2767
2018-04-06T09:10:07.785Z,2790
2018-04-06T09:11:09.158Z,2880
2018-04-06T09:12:11.053Z,2857
2018-04-06T09:13:12.427Z,2722
2018-04-06T09:14:13.787Z,2806
2018-04-06T09:15:15.173Z,2902
2018-04-06T09:16:16.544Z,2891
2018-04-06T09:17:17.916Z,2857
2018-04-06T09:18:19.928Z,2863
2018-04-06T09:19:21.297Z,2806
2018-04-06T09:20:22.659Z,2835
2018-04-06T09:21:24.029Z,2778
2018-04-06T09:22:25.400Z,2846
2018-04-06T09:23:26.778Z,2829
2018-04-06T09:24:28.306Z,2823
2018-04-06T09:25:29.677Z,2823
2018-04-06T09:26:31.051Z,2812
2018-04-06T09:27:32.418Z,2840
2018-04-06T09:28:33.790Z,2818
2018-04-06T09:29:35.165Z,2649
2018-04-06T09:30:36.567Z,2548
2018-04-06T09:31:37.941Z,2688
2018-04-06T09:32:39.306Z,2745
2018-04-06T09:33:40.684Z,2705
2018-04-06T09:34:42.058Z,2745
2018-04-06T09:35:43.440Z,2795
2018-04-06T09:36:44.811Z,2885
2018-04-06T09:37:46.183Z,2868
2018-04-06T09:38:47.562Z,2756
2018-04-06T09:39:48.944Z,2795
2018-04-06T09:40:50.336Z,3003
2018-04-06T09:41:51.705Z,3065
2018-04-06T09:42:53.084Z,3082
2018-04-06T09:43:55.173Z,3026
2018-04-06T09:44:56.592Z,2947
2018-04-06T09:45:57.966Z,2919
2018-04-06T09:46:59.349Z,3043
2018-04-06T09:48:00.728Z,3138
2018-04-06T09:49:02.092Z,3166
2018-04-06T09:50:03.468Z,3178
2018-04-06T09:51:04.851Z,2829
2018-04-06T09:52:06.225Z,2638
2018-04-06T09:53:07.599Z,2992
2018-04-06T09:54:08.983Z,3099
2018-04-06T09:55:10.401Z,3065
2018-04-06T09:56:11.759Z,3076
2018-04-06T09:57:13.132Z,2981
2018-04-06T09:58:14.504Z,2801
2018-04-06T09:59:15.877Z,2626
2018-04-06T10:00:17.256Z,2778
2018-04-06T10:01:18.641Z,3037
2018-04-06T10:02:20.016Z,2851
2018-04-06T10:03:21.396Z,2587
2018-04-06T10:04:22.759Z,2610
2018-04-06T10:05:24.133Z,2643
2018-04-06T10:06:25.510Z,2941
2018-04-06T10:07:27.033Z,2812
2018-04-06T10:08:28.432Z,2767
2018-04-06T10:09:29.822Z,2908
2018-04-06T10:10:31.205Z,2767
2018-04-06T10:11:32.595Z,2660
2018-04-06T10:12:33.965Z,2812
2018-04-06T10:13:35.489Z,2739
2018-04-06T10:14:36.873Z,2593
2018-04-06T10:15:38.244Z,2795
2018-04-06T10:16:39.627Z,2801
2018-04-06T10:17:41.000Z,2761
2018-04-06T10:18:42.376Z,2688
2018-04-06T10:19:43.753Z,2576
2018-04-06T10:20:45.138Z,2565
2018-04-06T10:21:46.538Z,2598
2018-04-06T10:22:47.898Z,2694
2018-04-06T10:23:49.271Z,2705
2018-04-06T10:24:50.657Z,2621
2018-04-06T10:25:52.051Z,2418
2018-04-06T10:26:53.430Z,2295
2018-04-06T10:27:54.812Z,2295
2018-04-06T10:28:56.180Z,2373
2018-04-06T10:29:57.561Z,2379
2018-04-06T10:30:58.943Z,2362
2018-04-06T10:32:00.307Z,2340
2018-04-06T10:33:01.698Z,2278
2018-04-06T10:34:03.059Z,2261
2018-04-06T10:35:04.483Z,2323
2018-04-06T10:36:05.814Z,2261
2018-04-06T10:37:07.191Z,2424
2018-04-06T10:38:08.581Z,2340
2018-04-06T10:39:09.951Z,2278
2018-04-06T10:40:11.321Z,2266
2018-04-06T10:41:12.704Z,2272
2018-04-06T10:42:14.075Z,2328
2018-04-06T10:43:15.453Z,2525
2018-04-06T10:44:16.834Z,2638
2018-04-06T10:45:18.213Z,2379
2018-04-06T10:46:19.590Z,2334
2018-04-06T10:47:20.958Z,2486
2018-04-06T10:48:22.340Z,2311
2018-04-06T10:49:23.810Z,2295
2018-04-06T10:50:25.195Z,2486
2018-04-06T10:51:26.569Z,2452
2018-04-06T10:52:27.956Z,2283
2018-04-06T10:53:29.345Z,2199
2018-04-06T10:54:30.735Z,2328
2018-04-06T10:55:32.112Z,2604
2018-04-06T10:56:33.485Z,2536
2018-04-06T10:57:34.875Z,2520
2018-04-06T10:58:36.271Z,2542
2018-04-06T10:59:37.611Z,2424
2018-04-06T11:00:38.998Z,2385
2018-04-06T11:01:40.377Z,2379
2018-04-06T11:02:41.751Z,2317
2018-04-06T11:03:43.127Z,2334
2018-04-06T11:04:44.521Z,2373
2018-04-06T11:05:45.902Z,2446
2018-04-06T11:06:47.276Z,2418
2018-04-06T11:07:48.645Z,2317
2018-04-06T11:08:50.019Z,2278
2018-04-06T11:09:51.399Z,2385
2018-04-06T11:10:52.772Z,2430
2018-04-06T11:11:55.020Z,2351
2018-04-06T11:12:56.401Z,2278
2018-04-06T11:13:57.796Z,2491
2018-04-06T11:14:59.168Z,2598
2018-04-06T11:16:00.551Z,2475
2018-04-06T11:17:01.942Z,2626
2018-04-06T11:18:03.310Z,2632
2018-04-06T11:19:04.687Z,2306
2018-04-06T11:20:06.062Z,2711
2018-04-06T11:21:07.439Z,2750
2018-04-06T11:22:08.819Z,2486
2018-04-06T11:23:10.214Z,2143
2018-04-06T11:24:11.560Z,2154
2018-04-06T11:25:12.932Z,2278
2018-04-06T11:26:14.313Z,2531
2018-04-06T11:27:15.691Z,2638
2018-04-06T11:28:17.073Z,2407
2018-04-06T11:29:18.445Z,2340
2018-04-06T11:30:19.820Z,2475
2018-04-06T11:31:21.202Z,2356
2018-04-06T11:32:22.599Z,2311
2018-04-06T11:33:23.980Z,2317
2018-04-06T11:34:25.362Z,2171
2018-04-06T11:35:26.743Z,2176
2018-04-06T11:36:28.118Z,2244
2018-04-06T11:37:29.496Z,2340
2018-04-06T11:38:30.875Z,2548
2018-04-06T11:39:32.258Z,2503
2018-04-06T11:40:33.640Z,2446
2018-04-06T11:41:35.023Z,2401
2018-04-06T11:42:36.398Z,2261
2018-04-06T11:43:37.776Z,2176
2018-04-06T11:44:39.156Z,2143
2018-04-06T11:45:40.589Z,2143
2018-04-06T11:46:41.960Z,2188
2018-04-06T11:47:43.334Z,2171
2018-04-06T11:48:44.734Z,2171
2018-04-06T11:49:46.194Z,2188
2018-04-06T11:50:47.540Z,2368
2018-04-06T11:51:48.919Z,2300
2018-04-06T11:52:50.354Z,2131
2018-04-06T11:53:51.736Z,2070
2018-04-06T11:54:53.119Z,2081
2018-04-06T11:55:54.508Z,2092
2018-04-06T11:56:55.884Z,2025
2018-04-06T11:57:57.982Z,1963
2018-04-06T11:58:59.367Z,1996
2018-04-06T12:00:00.760Z,2030
2018-04-06T12:01:02.462Z,2109
2018-04-06T12:02:03.856Z,2148
2018-04-06T12:03:05.237Z,2115
2018-04-06T12:04:06.624Z,2120
2018-04-06T12:05:08.028Z,2176
2018-04-06T12:06:09.423Z,2233
2018-04-06T12:07:10.802Z,2205
2018-04-06T12:08:12.186Z,2131
2018-04-06T12:09:13.569Z,2036
2018-04-06T12:10:14.939Z,2013
2018-04-06T12:11:16.332Z,2019
2018-04-06T12:12:17.709Z,2013
2018-04-06T12:13:19.084Z,2019
2018-04-06T12:14:20.475Z,2019
2018-04-06T12:15:21.863Z,2036
2018-04-06T12:16:23.242Z,2058
2018-04-06T12:17:24.637Z,2053
2018-04-06T12:18:26.023Z,2058
2018-04-06T12:19:27.398Z,2058
2018-04-06T12:20:28.784Z,2070
2018-04-06T12:21:30.154Z,2058
2018-04-06T12:22:31.532Z,2081
2018-04-06T12:23:32.931Z,2070
2018-04-06T12:24:34.297Z,2064
2018-04-06T12:25:35.678Z,2086
2018-04-06T12:26:37.056Z,2092
2018-04-06T12:27:38.432Z,2103
2018-04-06T12:28:39.820Z,2109
2018-04-06T12:29:41.195Z,2120
2018-04-06T12:30:42.585Z,2115
2018-04-06T12:31:43.984Z,2109
2018-04-06T12:32:45.363Z,2103
2018-04-06T12:33:46.739Z,2086
2018-04-06T12:34:48.109Z,2086
2018-04-06T12:35:49.506Z,2103
2018-04-06T12:36:50.872Z,2075
2018-04-06T12:37:52.270Z,2086
2018-04-06T12:38:53.654Z,2092
2018-04-06T12:39:55.045Z,2098
2018-04-06T12:40:56.423Z,2070
2018-04-06T12:41:57.801Z,2030
2018-04-06T12:42:59.197Z,2025
2018-04-06T12:44:00.591Z,2025
2018-04-06T12:45:02.001Z,1968
2018-04-06T12:46:03.384Z,1918
2018-04-06T12:47:04.771Z,1890
2018-04-06T12:48:06.144Z,1850
2018-04-06T12:49:07.536Z,1833
2018-04-06T12:50:08.900Z,1800
2018-04-06T12:51:10.278Z,1777
2018-04-06T12:52:11.678Z,1743
2018-04-06T12:53:13.050Z,1726
2018-04-06T12:54:14.442Z,1693
2018-04-06T12:55:15.805Z,1665
2018-04-06T12:56:17.196Z,1625
2018-04-06T12:57:18.592Z,1614
2018-04-06T12:58:19.975Z,1586
2018-04-06T12:59:21.530Z,1575
2018-04-06T13:00:22.922Z,1530
2018-04-06T13:01:24.358Z,1490
2018-04-06T13:02:25.914Z,1473
2018-04-06T13:03:27.295Z,1434
2018-04-06T13:04:28.679Z,1411
2018-04-06T13:05:30.070Z,1417
2018-04-06T13:06:31.449Z,1389
2018-04-06T13:07:32.827Z,1361
2018-04-06T13:08:34.196Z,1355
2018-04-06T13:09:35.573Z,1327
2018-04-06T13:10:36.954Z,1321
2018-04-06T13:11:38.342Z,1316
2018-04-06T13:12:39.720Z,1350
2018-04-06T13:13:41.100Z,1350
2018-04-06T13:14:42.477Z,1361
2018-04-06T13:15:43.846Z,1383
2018-04-06T13:16:45.227Z,1400
2018-04-06T13:17:46.602Z,1462
2018-04-06T13:18:47.975Z,1485
2018-04-06T13:19:49.359Z,1473
2018-04-06T13:20:50.732Z,1614
2018-04-06T13:21:52.109Z,1816
2018-04-06T13:22:53.490Z,1974
2018-04-06T13:23:54.861Z,2255
2018-04-06T13:24:56.228Z,2508
2018-04-06T13:25:57.621Z,2340
2018-04-06T13:26:59.001Z,2064
2018-04-06T13:28:00.387Z,2030
2018-04-06T13:29:01.760Z,1957
2018-04-06T13:30:03.145Z,1940
2018-04-06T13:31:04.536Z,2041
2018-04-06T13:32:05.900Z,2002
2018-04-06T13:33:07.276Z,1951
2018-04-06T13:34:08.663Z,1906
2018-04-06T13:35:10.038Z,1833
2018-04-06T13:36:11.406Z,1715
2018-04-06T13:37:12.819Z,1676
2018-04-06T13:38:14.155Z,1794
2018-04-06T13:39:15.539Z,2064
2018-04-06T13:40:16.914Z,2030
2018-04-06T13:41:18.293Z,1805
2018-04-06T13:42:19.661Z,1704
2018-04-06T13:43:21.040Z,1665
2018-04-06T13:44:22.411Z,1653
2018-04-06T13:45:23.823Z,1693
2018-04-06T13:46:25.466Z,1608
2018-04-06T13:47:26.827Z,1653
2018-04-06T13:48:28.208Z,1766
2018-04-06T13:49:29.587Z,1749
2018-04-06T13:50:30.968Z,1726
2018-04-06T13:51:32.377Z,1698
2018-04-06T13:52:33.751Z,1620
2018-04-06T13:53:35.142Z,1535
2018-04-06T13:54:36.513Z,1513
2018-04-06T13:55:37.885Z,1597
2018-04-06T13:56:39.264Z,1940
2018-04-06T13:57:40.652Z,1991
2018-04-06T13:58:42.038Z,1648
2018-04-06T13:59:43.413Z,1710
2018-04-06T14:00:44.795Z,1636
2018-04-06T14:01:46.181Z,1591
2018-04-06T14:02:48.100Z,1648
2018-04-06T14:03:50.119Z,1676
2018-04-06T14:04:51.502Z,1800
2018-04-06T14:05:53.379Z,1805
2018-04-06T14:06:54.751Z,1794
2018-04-06T14:07:56.137Z,1845
2018-04-06T14:08:57.517Z,1800
2018-04-06T14:09:58.897Z,1698
2018-04-06T14:11:00.984Z,1608
2018-04-06T14:12:01.657Z,1839
2018-04-06T14:13:03.061Z,2064
2018-04-06T14:14:05.116Z,1940
2018-04-06T14:15:06.564Z,1890
2018-04-06T14:16:07.832Z,1867
2018-04-06T14:17:09.837Z,1670
2018-04-06T14:18:11.231Z,1687
2018-04-06T14:19:13.505Z,1968
2018-04-06T14:20:14.903Z,2019
2018-04-06T14:21:16.942Z,1985
2018-04-06T14:22:18.321Z,1940
2018-04-06T14:23:19.699Z,1845
2018-04-06T14:24:21.083Z,1991
2018-04-06T14:25:22.455Z,1991
2018-04-06T14:26:24.779Z,2120
2018-04-06T14:27:26.164Z,2092
2018-04-06T14:28:27.551Z,2041
2018-04-06T14:29:28.924Z,2019
2018-04-06T14:30:30.306Z,2098
2018-04-06T14:31:31.682Z,2013
2018-04-06T14:32:33.059Z,2019
2018-04-06T14:33:34.435Z,1980